Amarillo, Texas
Current Conditions -  °F | °C
As of 1:53 PM on Wednesday 17 Dec 2014 (Local Time) from KAMA Reporting Station
Overcast Overcast  
Wind Chill: 28°   Ceiling: 800
Heat Index: 37°   Visibility: 10mi
Dew Point: 33°   Wind: 14mph
Humidity: 86%   Direction: 160°SSE
Pressure: 29.98"   Gusts: NA
Location:  35.21°N, 101.83°W
Report Text: KAMA 171953Z 16012KT 10SM BKN008 OVC026 03/01 A2998 RMK AO2 SLP152 T00280006
Loading
Personal Weather Stations






























Interactive Weather Map New forecast layout! Learn more

10-Day Weather Forecast

Advertisements
Track Severe Weather on mobile